»·PEaware :: WAT605 KLAS-KLGB

WAT605 :: KLAS-KLGB

FLIGHT INFORMATION

Flight Status: Arrived
Operator:
Walker Air Transport
More flights by this operator :: More flights under this callsign
Pilot: Kaleb W. (11686)
Aircraft: AIRBUS A320
(A320)
More flights by this aircraft type
Origin: KLAS Harry Reid Intl
United States
Destination: KLGB Long Beach
United States
More flights between these airports :: More routes between these airports
Route: RADYR1 BLAQQ FEYLA DSNEE4
File this flight plan on PilotEdge
Remarks: RMK / SIMBRIEF
Altitude:
(Current/Filed)
30,000ft
Speed:
(Current/Filed)
459kts
Departed: 05-Mar-21 07:30 PM
Arrived: 05-Mar-21 08:15 PM
Distance/Time
Traveled:
200nm/0:45
Distance/Time
To Go:
Arrived

Flight Plot

Page will automatically refresh every two minutes.

Flight plan parsing failed; only flown route is shown


Map Options




Map Legend


Flown Route
Filed Route
Departure Airport
Arrival Airport
Navaid (VOR, NDB)
Fix

Horizontal Profiles

Position Reports

Time Latitude Longitude Heading Altitude Ground
Speed
05-Mar-21 18:49 36.082864 -115.153585 109 2115ft 0kts
05-Mar-21 18:50 36.082864 -115.153585 109 2115ft 0kts
05-Mar-21 18:51 36.082864 -115.153585 109 2115ft 0kts
05-Mar-21 18:52 36.082864 -115.153585 109 2115ft 0kts
05-Mar-21 18:53 36.082864 -115.153585 109 2115ft 0kts
05-Mar-21 18:54 36.082864 -115.153585 109 2115ft 0kts
05-Mar-21 18:55 36.082864 -115.153585 109 2115ft 0kts
05-Mar-21 18:56 36.082864 -115.153585 109 2115ft 0kts
05-Mar-21 18:57 36.082864 -115.153585 109 2115ft 0kts
05-Mar-21 18:58 36.082864 -115.153585 109 2115ft 0kts
05-Mar-21 18:59 36.082864 -115.153585 109 2115ft 0kts
05-Mar-21 19:00 36.082864 -115.153585 109 2115ft 0kts
05-Mar-21 19:01 36.082864 -115.153585 109 2115ft 0kts
05-Mar-21 19:02 36.082864 -115.153585 109 2115ft 0kts
05-Mar-21 19:03 36.082864 -115.153585 109 2115ft 0kts
05-Mar-21 19:04 36.082864 -115.153585 109 2115ft 0kts
05-Mar-21 19:05 36.082864 -115.153585 109 2115ft 0kts
05-Mar-21 19:06 36.082864 -115.153585 109 2115ft 0kts
05-Mar-21 19:07 36.082864 -115.153585 109 2115ft 0kts
05-Mar-21 19:08 36.082864 -115.153585 109 2115ft 0kts
05-Mar-21 19:09 36.082864 -115.153585 109 2115ft 0kts
05-Mar-21 19:10 36.082864 -115.153585 109 2115ft 0kts
05-Mar-21 19:11 36.082864 -115.153585 109 2115ft 0kts
05-Mar-21 19:12 36.082864 -115.153585 109 2115ft 0kts
05-Mar-21 19:13 36.082864 -115.153586 109 2115ft 0kts
05-Mar-21 19:14 36.083038 -115.154039 120 2116ft 2kts
05-Mar-21 19:15 36.083556 -115.154106 230 2115ft 2kts
05-Mar-21 19:16 36.083637 -115.153898 254 2114ft 0kts
05-Mar-21 19:17 36.083637 -115.153898 254 2114ft 0kts
05-Mar-21 19:18 36.083637 -115.153898 254 2114ft 0kts
05-Mar-21 19:19 36.083540 -115.154328 254 2116ft 0kts
05-Mar-21 19:20 36.082809 -115.156003 166 2124ft 5kts
05-Mar-21 19:21 36.080329 -115.154196 156 2124ft 16kts
05-Mar-21 19:22 36.078681 -115.149687 94 2110ft 22kts
05-Mar-21 19:23 36.078278 -115.140159 88 2080ft 32kts
05-Mar-21 19:24 36.078279 -115.130283 89 2051ft 21kts
05-Mar-21 19:25 36.078305 -115.124790 90 2040ft 21kts
05-Mar-21 19:26 36.077475 -115.121477 138 2038ft 0kts
05-Mar-21 19:27 36.077475 -115.121477 138 2038ft 0kts
05-Mar-21 19:28 36.076383 -115.123306 270 2041ft 40kts
05-Mar-21 19:29 36.076259 -115.175140 268 3204ft 200kts
05-Mar-21 19:30 36.073179 -115.247348 242 5726ft 241kts
05-Mar-21 19:31 36.010071 -115.287794 199 7907ft 275kts
05-Mar-21 19:32 35.933999 -115.308706 190 10289ft 286kts
05-Mar-21 19:33 35.847798 -115.329603 190 11767ft 352kts
05-Mar-21 19:34 35.747477 -115.354131 190 13794ft 376kts
05-Mar-21 19:35 35.643794 -115.379420 190 16001ft 385kts
05-Mar-21 19:36 35.536587 -115.382666 176 17945ft 393kts
05-Mar-21 19:37 35.433300 -115.416335 222 19655ft 406kts
05-Mar-21 19:38 35.376023 -115.537459 241 21258ft 418kts
05-Mar-21 19:39 35.323737 -115.665226 240 22720ft 424kts
05-Mar-21 19:40 35.270148 -115.795976 240 24017ft 432kts
05-Mar-21 19:41 35.209928 -115.922676 225 25198ft 434kts
05-Mar-21 19:42 35.129396 -116.024285 224 28196ft 393kts
05-Mar-21 19:43 35.056667 -116.115739 224 30129ft 383kts
05-Mar-21 19:44 34.978847 -116.213526 224 30139ft 418kts
05-Mar-21 19:45 34.895061 -116.318353 225 30129ft 434kts
05-Mar-21 19:46 34.810901 -116.425252 225 27690ft 439kts
05-Mar-21 19:47 34.728301 -116.530247 225 25579ft 422kts
05-Mar-21 19:48 34.645944 -116.621007 217 24410ft 385kts
05-Mar-21 19:50 34.563823 -116.701346 217 22359ft 375kts
05-Mar-21 19:51 34.484867 -116.781958 222 20307ft 367kts
05-Mar-21 19:52 34.412027 -116.866587 221 18283ft 359kts
05-Mar-21 19:53 34.340685 -116.949211 221 16280ft 351kts
05-Mar-21 19:54 34.270618 -117.029188 217 14325ft 342kts
05-Mar-21 19:55 34.191502 -117.087973 209 13206ft 329kts
05-Mar-21 19:56 34.110337 -117.135155 203 12639ft 311kts
05-Mar-21 19:57 34.028856 -117.178848 203 12180ft 326kts
05-Mar-21 19:58 33.959243 -117.248108 228 10552ft 319kts
05-Mar-21 19:59 33.907424 -117.321035 228 9392ft 257kts
05-Mar-21 20:00 33.863146 -117.383684 229 8417ft 240kts
05-Mar-21 20:01 33.820098 -117.444995 236 8019ft 240kts
05-Mar-21 20:02 33.796032 -117.520301 249 7648ft 237kts
05-Mar-21 20:03 33.773860 -117.594601 248 6993ft 230kts
05-Mar-21 20:04 33.752334 -117.666479 247 6999ft 221kts
05-Mar-21 20:05 33.731939 -117.734383 247 6355ft 214kts
05-Mar-21 20:06 33.711601 -117.802013 248 5336ft 211kts
05-Mar-21 20:07 33.692410 -117.865614 248 4239ft 198kts
05-Mar-21 20:08 33.673984 -117.926574 248 4001ft 190kts
05-Mar-21 20:09 33.684240 -117.981243 299 3227ft 163kts
05-Mar-21 20:09 33.707070 -118.017039 310 2827ft 150kts
05-Mar-21 20:11 33.739321 -118.056427 312 1605ft 140kts
05-Mar-21 20:12 33.766701 -118.089690 314 1272ft 138kts
05-Mar-21 20:13 33.793406 -118.121875 313 555ft 135kts
05-Mar-21 20:13 33.815138 -118.148176 314 42ft 115kts
05-Mar-21 20:15 33.821638 -118.157049 268 55ft 0kts
05-Mar-21 20:16 33.821029 -118.157110 139 55ft 14kts
05-Mar-21 20:16 33.819315 -118.155065 133 51ft 0kts
05-Mar-21 20:17 33.818601 -118.151867 89 46ft 17kts
05-Mar-21 20:19 33.818595 -118.146270 88 41ft 0kts
05-Mar-21 20:19 33.818595 -118.146270 88 41ft 0kts
05-Mar-21 20:20 33.818595 -118.146270 88 41ft 0kts

Navigation Log

Ident Type
Flight plan parsing failed, navigation log unavailable